Time;durP1;ratioP1;P1;durP2;ratioP2;P2;SDS_P1;SDS_P2;PMS_P1;PMS_P2;Temp;Humidity;BMP_temperature;BMP_pressure;BME280_temperature;BME280_humidity;BME280_pressure;Samples;Min_cycle;Max_cycle;Signal;HPM_P1;HPM_P2
2022/06/13 00:00:54;;;;;;;12.30;5.17;;;;;;;;;;5092558;28;20028;-76
2022/06/13 00:03:21;;;;;;;13.37;5.90;;;;;;;;;;5092492;28;20039;-76
2022/06/13 00:05:48;;;;;;;10.60;5.37;;;;;;;;;;5092544;28;20032;-76
2022/06/13 00:08:14;;;;;;;8.63;4.83;;;;;;;;;;5092668;28;20056;-75
2022/06/13 00:10:41;;;;;;;8.67;4.60;;;;;;;;;;5092323;28;20465;-76
2022/06/13 00:13:08;;;;;;;14.67;4.77;;;;;;;;;;5086905;28;20027;-75
2022/06/13 00:15:35;;;;;;;14.90;5.07;;;;;;;;;;5087253;28;20028;-75
2022/06/13 00:18:01;;;;;;;12.53;5.40;;;;;;;;;;5087164;28;20024;-76
2022/06/13 00:20:28;;;;;;;7.53;4.30;;;;;;;;;;5086747;28;20032;-76
2022/06/13 00:22:54;;;;;;;12.80;4.50;;;;;;;;;;5091366;28;20540;-75
2022/06/13 00:25:21;;;;;;;9.27;4.17;;;;;;;;;;5092434;28;20028;-75
2022/06/13 00:27:48;;;;;;;12.70;5.13;;;;;;;;;;5092214;28;20016;-75
2022/06/13 00:30:15;;;;;;;12.67;5.03;;;;;;;;;;5091902;28;20046;-75
2022/06/13 00:32:41;;;;;;;9.73;4.80;;;;;;;;;;5092394;28;20073;-75
2022/06/13 00:35:08;;;;;;;10.23;4.73;;;;;;;;;;5087774;28;20433;-76
2022/06/13 00:37:35;;;;;;;10.23;4.70;;;;;;;;;;5089787;28;20403;-75
2022/06/13 00:40:02;;;;;;;9.90;4.70;;;;;;;;;;5091303;28;20020;-75
2022/06/13 00:42:29;;;;;;;10.50;6.33;;;;;;;;;;5090935;28;20044;-76
2022/06/13 00:45:11;;;;;;;16.50;6.63;;;;;;;;;;5094437;28;20054;-75
2022/06/13 00:47:39;;;;;;;20.23;6.93;;;;;;;;;;5096144;28;20121;-75
2022/06/13 00:50:08;;;;;;;11.87;6.33;;;;;;;;;;5096662;28;20367;-76
2022/06/13 00:52:40;;;;;;;11.63;4.80;;;;;;;;;;5096431;28;20032;-75
2022/06/13 00:55:10;;;;;;;10.83;4.20;;;;;;;;;;5096190;28;20547;-75
2022/06/13 00:57:36;;;;;;;9.83;4.40;;;;;;;;;;5090465;28;20028;-75
2022/06/13 01:00:05;;;;;;;12.93;4.93;;;;;;;;;;5090521;28;20487;-75
2022/06/13 01:02:33;;;;;;;12.00;4.53;;;;;;;;;;5090604;28;20059;-76
2022/06/13 01:05:00;;;;;;;10.90;4.93;;;;;;;;;;5090692;28;20073;-75
2022/06/13 01:07:28;;;;;;;13.00;5.13;;;;;;;;;;5094437;28;20034;-75
2022/06/13 01:12:40;;;;;;;;;;;;;;;;;;5076034;28;20457;-77
2022/06/13 01:15:12;;;;;;;11.20;4.30;;;;;;;;;;5075798;28;20267;-77
2022/06/13 01:17:49;;;;;;;9.00;3.23;;;;;;;;;;5075339;28;20027;-77
2022/06/13 01:20:17;;;;;;;8.87;3.70;;;;;;;;;;5070092;28;20032;-77
2022/06/13 01:22:43;;;;;;;12.17;4.57;;;;;;;;;;5069771;28;20044;-77
2022/06/13 01:25:13;;;;;;;7.37;3.73;;;;;;;;;;5070048;28;20392;-77
2022/06/13 01:27:45;;;;;;;7.40;3.70;;;;;;;;;;5070037;28;20028;-77
2022/06/13 01:30:27;;;;;;;13.83;3.90;;;;;;;;;;5075053;28;20025;-78
2022/06/13 01:32:57;;;;;;;7.03;3.80;;;;;;;;;;5079140;28;20076;-78
2022/06/13 01:35:30;;;;;;;10.40;3.97;;;;;;;;;;5095349;28;20058;-78
2022/06/13 01:38:09;;;;;;;7.07;4.17;;;;;;;;;;5095541;28;20016;-78
2022/06/13 01:40:45;;;;;;;11.40;4.80;;;;;;;;;;5094314;28;20803;-78
2022/06/13 01:43:17;;;;;;;11.47;5.03;;;;;;;;;;5090306;28;20032;-78
2022/06/13 01:45:44;;;;;;;10.53;5.20;;;;;;;;;;5089693;28;20028;-78
2022/06/13 01:48:14;;;;;;;10.03;4.63;;;;;;;;;;5088994;28;20020;-78
2022/06/13 01:50:44;;;;;;;9.80;4.47;;;;;;;;;;5090435;28;20028;-78
2022/06/13 01:53:16;;;;;;;11.40;4.40;;;;;;;;;;5095229;28;20107;-77
2022/06/13 01:55:50;;;;;;;10.77;4.30;;;;;;;;;;5095195;28;20024;-77
2022/06/13 01:58:20;;;;;;;8.63;4.18;;;;;;;;;;5095321;28;20375;-77
2022/06/13 02:00:52;;;;;;;10.47;4.77;;;;;;;;;;5095748;28;20028;-77
2022/06/13 02:03:39;;;;;;;14.50;4.63;;;;;;;;;;5092891;28;20365;-77
2022/06/13 02:06:25;;;;;;;8.00;3.93;;;;;;;;;;5089715;28;20447;-78
2022/06/13 02:08:57;;;;;;;8.93;4.33;;;;;;;;;;5089506;28;20379;-77
2022/06/13 02:11:26;;;;;;;15.57;4.60;;;;;;;;;;5089734;28;20031;-77
2022/06/13 02:13:58;;;;;;;9.33;4.33;;;;;;;;;;5092689;28;20025;-77
2022/06/13 02:16:33;;;;;;;10.10;4.20;;;;;;;;;;5095001;28;20047;-78
2022/06/13 02:19:10;;;;;;;9.10;4.33;;;;;;;;;;5094767;28;20016;-78
2022/06/13 02:21:51;;;;;;;8.97;4.07;;;;;;;;;;5094659;28;20024;-77
2022/06/13 02:24:19;;;;;;;10.57;4.53;;;;;;;;;;5094416;28;20479;-77
2022/06/13 02:26:47;;;;;;;13.93;4.93;;;;;;;;;;5090257;28;20111;-77
2022/06/13 02:29:22;;;;;;;9.10;4.37;;;;;;;;;;5089500;28;20035;-78
2022/06/13 02:32:08;;;;;;;7.28;4.28;;;;;;;;;;5089293;28;20016;-77
2022/06/13 02:34:38;;;;;;;8.40;4.67;;;;;;;;;;5088980;28;20023;-78
2022/06/13 02:37:10;;;;;;;11.50;5.13;;;;;;;;;;5094158;28;20020;-78
2022/06/13 02:39:45;;;;;;;10.57;4.30;;;;;;;;;;5095213;28;20027;-77
2022/06/13 02:42:23;;;;;;;11.37;5.40;;;;;;;;;;5095546;28;20073;-77
2022/06/13 02:44:52;;;;;;;8.03;4.33;;;;;;;;;;5094095;28;20491;-77
2022/06/13 02:47:22;;;;;;;11.80;5.47;;;;;;;;;;5094805;28;20371;-77
2022/06/13 02:49:57;;;;;;;8.67;4.57;;;;;;;;;;5089537;28;20031;-77
2022/06/13 02:52:30;;;;;;;9.43;5.30;;;;;;;;;;5089152;28;20051;-78
2022/06/13 02:54:58;;;;;;;9.40;4.07;;;;;;;;;;5088750;28;20161;-77
2022/06/13 02:57:31;;;;;;;12.17;4.97;;;;;;;;;;5088976;28;20053;-78
2022/06/13 03:00:16;;;;;;;9.37;5.10;;;;;;;;;;5094607;28;20038;-77
2022/06/13 03:02:57;;;;;;;10.13;4.20;;;;;;;;;;5093927;28;20044;-78
2022/06/13 03:05:29;;;;;;;10.10;5.20;;;;;;;;;;5093887;28;20035;-77
2022/06/13 03:07:59;;;;;;;12.80;5.33;;;;;;;;;;5094607;28;20135;-78
2022/06/13 03:10:32;;;;;;;12.83;5.47;;;;;;;;;;5091066;28;20055;-78
2022/06/13 03:12:59;;;;;;;10.33;4.90;;;;;;;;;;5088361;28;20055;-78
2022/06/13 03:15:39;;;;;;;10.37;5.03;;;;;;;;;;5088344;28;20020;-78
2022/06/13 03:18:08;;;;;;;14.00;5.70;;;;;;;;;;5088469;28;20032;-77
2022/06/13 03:21:10;;;;;;;13.80;5.47;;;;;;;;;;5090858;28;20374;-77
2022/06/13 03:23:41;;;;;;;15.03;5.63;;;;;;;;;;5031087;28;20040;-77
2022/06/13 03:26:10;;;;;;;12.00;5.47;;;;;;;;;;5083972;28;20438;-77
2022/06/13 03:28:56;;;;;;;11.80;5.20;;;;;;;;;;5094052;28;20530;-78
2022/06/13 03:31:32;;;;;;;10.90;6.33;;;;;;;;;;5093331;28;20500;-78
2022/06/13 03:34:01;;;;;;;10.53;6.27;;;;;;;;;;5089071;28;20027;-77
2022/06/13 03:36:40;;;;;;;10.73;6.70;;;;;;;;;;5088834;28;20039;-77
2022/06/13 03:39:13;;;;;;;12.67;5.67;;;;;;;;;;5088898;28;20016;-77
2022/06/13 03:41:43;;;;;;;9.67;5.33;;;;;;;;;;5088637;28;20107;-77
2022/06/13 03:44:13;;;;;;;20.90;6.33;;;;;;;;;;5093513;28;20040;-78
2022/06/13 03:47:00;;;;;;;9.60;5.37;;;;;;;;;;5094125;28;20028;-77
2022/06/13 03:49:29;;;;;;;7.60;4.80;;;;;;;;;;5093731;28;20085;-77
2022/06/13 03:51:57;;;;;;;8.67;5.03;;;;;;;;;;5094415;28;20028;-78
2022/06/13 03:54:23;;;;;;;17.33;5.93;;;;;;;;;;5094091;28;20031;-77
2022/06/13 03:56:52;;;;;;;13.53;6.27;;;;;;;;;;5088636;28;20032;-77
2022/06/13 03:59:22;;;;;;;10.03;6.50;;;;;;;;;;5088775;28;20020;-78
2022/06/13 04:02:08;;;;;;;14.73;5.60;;;;;;;;;;5088775;28;20098;-77
2022/06/13 04:04:41;;;;;;;10.73;5.30;;;;;;;;;;5091626;28;20058;-77
2022/06/13 04:07:08;;;;;;;13.20;5.37;;;;;;;;;;5094742;28;20027;-77
2022/06/13 04:09:43;;;;;;;6.73;4.83;;;;;;;;;;5094556;28;20023;-77
2022/06/13 04:12:09;;;;;;;;;;;;;;;;;;5094720;28;20101;-77
2022/06/13 04:14:45;;;;;;;7.70;4.87;;;;;;;;;;5094538;28;20344;-78
2022/06/13 04:17:11;;;;;;;8.50;5.37;;;;;;;;;;5092457;28;20024;-77
2022/06/13 04:19:41;;;;;;;10.73;4.80;;;;;;;;;;5089127;28;20020;-77
2022/06/13 04:22:19;;;;;;;9.90;4.83;;;;;;;;;;5088789;28;20032;-77
2022/06/13 04:25:06;;;;;;;7.80;5.07;;;;;;;;;;5088782;28;20020;-77
2022/06/13 04:27:37;;;;;;;11.10;5.70;;;;;;;;;;5069726;28;20096;-77
2022/06/13 04:30:10;;;;;;;8.63;5.07;;;;;;;;;;5074341;28;20115;-78
2022/06/13 04:32:55;;;;;;;11.57;5.60;;;;;;;;;;5073968;28;20392;-78
2022/06/13 04:35:22;;;;;;;8.32;4.85;;;;;;;;;;5074119;28;20376;-77
2022/06/13 04:37:49;;;;;;;17.40;6.17;;;;;;;;;;5073937;28;20066;-77
2022/06/13 04:40:25;;;;;;;9.83;5.27;;;;;;;;;;5072009;28;20037;-77
2022/06/13 04:42:52;;;;;;;9.47;5.13;;;;;;;;;;5070486;28;20387;-77
2022/06/13 04:45:19;;;;;;;12.67;5.73;;;;;;;;;;5070982;28;20439;-77
2022/06/13 04:47:46;;;;;;;8.87;5.47;;;;;;;;;;5069228;28;20025;-77
2022/06/13 04:50:15;;;;;;;12.67;6.37;;;;;;;;;;5071130;28;20029;-77
2022/06/13 04:52:44;;;;;;;11.70;6.10;;;;;;;;;;5084057;28;20111;-77
2022/06/13 04:55:17;;;;;;;11.63;6.10;;;;;;;;;;5095952;28;20424;-77
2022/06/13 04:57:44;;;;;;;13.00;6.20;;;;;;;;;;5095080;28;20486;-77
2022/06/13 05:00:11;;;;;;;14.33;6.67;;;;;;;;;;5095867;28;20020;-77
2022/06/13 05:02:58;;;;;;;12.30;6.23;;;;;;;;;;5091619;28;20039;-77
2022/06/13 05:05:25;;;;;;;12.50;5.60;;;;;;;;;;5089100;28;20024;-78
2022/06/13 05:07:51;;;;;;;11.57;5.70;;;;;;;;;;5088362;28;20135;-78
2022/06/13 05:10:19;;;;;;;8.20;5.30;;;;;;;;;;5089436;28;20047;-77
2022/06/13 05:12:46;;;;;;;9.23;4.37;;;;;;;;;;5091722;28;20439;-77
2022/06/13 05:15:13;;;;;;;12.17;5.27;;;;;;;;;;5094672;28;20017;-77
2022/06/13 05:17:40;;;;;;;11.87;5.77;;;;;;;;;;5093781;28;20017;-77
2022/06/13 05:20:25;;;;;;;9.10;5.00;;;;;;;;;;5093170;28;20028;-78
2022/06/13 05:23:14;;;;;;;12.50;5.70;;;;;;;;;;5094249;28;20024;-77
2022/06/13 05:25:43;;;;;;;10.33;6.03;;;;;;;;;;5073910;28;20128;-77
2022/06/13 05:28:11;;;;;;;11.40;5.30;;;;;;;;;;5089478;28;20032;-77
2022/06/13 05:30:41;;;;;;;7.87;5.03;;;;;;;;;;5094796;28;20490;-77
2022/06/13 05:33:07;;;;;;;9.57;4.53;;;;;;;;;;5093985;28;20023;-77
2022/06/13 05:35:35;;;;;;;12.93;5.93;;;;;;;;;;5097266;28;20488;-77
2022/06/13 05:38:03;;;;;;;11.77;6.27;;;;;;;;;;5097565;28;20382;-78
2022/06/13 05:40:29;;;;;;;10.80;6.10;;;;;;;;;;5099555;28;20109;-77
2022/06/13 05:42:56;;;;;;;8.27;5.03;;;;;;;;;;5099788;28;20428;-77
2022/06/13 05:45:24;;;;;;;13.83;7.03;;;;;;;;;;5100081;28;20069;-77
2022/06/13 05:47:52;;;;;;;9.37;5.80;;;;;;;;;;5094983;28;20101;-77
2022/06/13 05:50:24;;;;;;;13.50;5.47;;;;;;;;;;5093027;28;20024;-77
2022/06/13 05:52:51;;;;;;;18.63;6.27;;;;;;;;;;5093749;28;20074;-77
2022/06/13 05:55:18;;;;;;;11.70;5.83;;;;;;;;;;5093269;28;20032;-77
2022/06/13 05:57:45;;;;;;;11.37;5.30;;;;;;;;;;5097035;28;20366;-77
2022/06/13 06:00:23;;;;;;;13.87;5.20;;;;;;;;;;5100451;28;20047;-77
2022/06/13 06:02:50;;;;;;;10.13;4.80;;;;;;;;;;5099174;28;20074;-77
2022/06/13 06:05:17;;;;;;;7.47;4.67;;;;;;;;;;5099952;28;20095;-78
2022/06/13 06:07:44;;;;;;;9.77;5.20;;;;;;;;;;5100137;28;20024;-77
2022/06/13 06:10:19;;;;;;;10.33;4.77;;;;;;;;;;5094525;28;20070;-77
2022/06/13 06:12:46;;;;;;;10.53;5.03;;;;;;;;;;5093043;28;20506;-77
2022/06/13 06:15:13;;;;;;;8.63;4.87;;;;;;;;;;5093323;28;20055;-77
2022/06/13 06:17:39;;;;;;;11.70;4.67;;;;;;;;;;5092057;28;20391;-77
2022/06/13 06:20:07;;;;;;;8.70;5.07;;;;;;;;;;5096557;28;20020;-77
2022/06/13 06:22:34;;;;;;;13.20;5.40;;;;;;;;;;5099572;28;20540;-77
2022/06/13 06:25:00;;;;;;;14.87;5.47;;;;;;;;;;5099627;28;20521;-77
2022/06/13 06:27:28;;;;;;;8.67;4.50;;;;;;;;;;5099310;28;20429;-77
2022/06/13 06:29:55;;;;;;;10.17;5.60;;;;;;;;;;5097956;28;20028;-77
2022/06/13 06:32:21;;;;;;;11.43;5.70;;;;;;;;;;5092850;28;20197;-77
2022/06/13 06:34:48;;;;;;;11.67;5.40;;;;;;;;;;5090717;28;20081;-77
2022/06/13 06:37:15;;;;;;;14.13;5.40;;;;;;;;;;5091413;28;20027;-77
2022/06/13 06:39:41;;;;;;;11.13;4.67;;;;;;;;;;5091931;28;20440;-76
2022/06/13 06:42:09;;;;;;;11.00;5.67;;;;;;;;;;5095475;28;20467;-77
2022/06/13 06:44:36;;;;;;;13.13;5.30;;;;;;;;;;5097367;28;20031;-77
2022/06/13 06:47:03;;;;;;;9.10;4.63;;;;;;;;;;5096794;28;20085;-77
2022/06/13 06:49:34;;;;;;;11.83;5.27;;;;;;;;;;5097508;28;20090;-77
2022/06/13 06:52:01;;;;;;;7.60;5.50;;;;;;;;;;5098161;28;20097;-77
2022/06/13 06:59:58;;;;;;;9.40;5.93;;;;;;;;;;5091458;28;20039;-77
2022/06/13 07:02:27;;;;;;;10.53;5.60;;;;;;;;;;5090964;28;20039;-77
2022/06/13 07:04:54;;;;;;;16.40;6.90;;;;;;;;;;5095440;28;20039;-77
2022/06/13 07:07:21;;;;;;;9.27;5.17;;;;;;;;;;5097248;28;20059;-77
2022/06/13 07:09:47;;;;;;;10.97;5.43;;;;;;;;;;5097839;28;20016;-77
2022/06/13 07:12:14;;;;;;;9.90;5.93;;;;;;;;;;5097699;28;20024;-77
2022/06/13 07:14:41;;;;;;;11.67;5.87;;;;;;;;;;5098363;28;20031;-77
2022/06/13 07:17:09;;;;;;;9.47;5.83;;;;;;;;;;5090166;28;20024;-77
2022/06/13 07:19:36;;;;;;;11.60;5.43;;;;;;;;;;5089310;28;20032;-77
2022/06/13 07:22:03;;;;;;;9.37;5.80;;;;;;;;;;5091089;28;20031;-77
2022/06/13 07:24:31;;;;;;;9.53;6.40;;;;;;;;;;5092518;28;20031;-77
2022/06/13 07:26:58;;;;;;;10.73;6.73;;;;;;;;;;5094973;28;20031;-77
2022/06/13 07:29:25;;;;;;;10.50;6.10;;;;;;;;;;5094136;28;20076;-76
2022/06/13 07:31:54;;;;;;;20.50;6.30;;;;;;;;;;5093764;28;20030;-77
2022/06/13 07:34:22;;;;;;;7.10;5.10;;;;;;;;;;5094088;28;20023;-77
2022/06/13 07:36:50;;;;;;;9.87;5.37;;;;;;;;;;5095716;28;20059;-77
2022/06/13 07:39:17;;;;;;;10.70;6.73;;;;;;;;;;5095308;28;20016;-77
2022/06/13 07:41:44;;;;;;;13.30;7.07;;;;;;;;;;5094065;28;20074;-76
2022/06/13 07:44:16;;;;;;;11.20;5.93;;;;;;;;;;5092595;28;20031;-77
2022/06/13 07:46:46;;;;;;;16.33;6.77;;;;;;;;;;5089147;28;20028;-77
2022/06/13 07:49:12;;;;;;;17.37;6.87;;;;;;;;;;5092372;28;20483;-77
2022/06/13 07:51:39;;;;;;;9.47;5.53;;;;;;;;;;5094430;28;20077;-77
2022/06/13 07:54:06;;;;;;;8.07;5.23;;;;;;;;;;5095722;28;20024;-77
2022/06/13 07:56:33;;;;;;;12.60;5.53;;;;;;;;;;5096172;28;20028;-77
2022/06/13 07:59:00;;;;;;;10.97;5.03;;;;;;;;;;5095562;28;20102;-77
2022/06/13 08:01:26;;;;;;;9.37;5.77;;;;;;;;;;5091788;28;20495;-77
2022/06/13 08:03:54;;;;;;;10.20;5.53;;;;;;;;;;5090426;28;20036;-77
2022/06/13 08:06:21;;;;;;;8.70;5.47;;;;;;;;;;5090542;28;20039;-77
2022/06/13 08:08:48;;;;;;;11.80;6.10;;;;;;;;;;5089831;28;20776;-77
2022/06/13 08:11:16;;;;;;;11.43;5.57;;;;;;;;;;5092931;28;20024;-78
2022/06/13 08:13:43;;;;;;;15.67;7.70;;;;;;;;;;5096170;28;20475;-77
2022/06/13 08:16:10;;;;;;;16.83;7.30;;;;;;;;;;5095549;28;20148;-77
2022/06/13 08:18:37;;;;;;;12.13;6.47;;;;;;;;;;5095283;28;20032;-77
2022/06/13 08:21:04;;;;;;;8.47;5.53;;;;;;;;;;5094973;28;20413;-77
2022/06/13 08:23:31;;;;;;;8.83;5.07;;;;;;;;;;5091599;28;20036;-77
2022/06/13 08:25:57;;;;;;;11.00;5.63;;;;;;;;;;5089486;28;20089;-77
2022/06/13 08:28:24;;;;;;;15.60;5.57;;;;;;;;;;5089249;28;20421;-77
2022/06/13 08:30:56;;;;;;;8.73;5.50;;;;;;;;;;5089990;28;20024;-77
2022/06/13 08:33:23;;;;;;;7.90;5.43;;;;;;;;;;5092083;28;20017;-77
2022/06/13 08:35:50;;;;;;;10.83;5.53;;;;;;;;;;5094922;28;20042;-77
2022/06/13 08:38:18;;;;;;;15.03;6.30;;;;;;;;;;5097886;28;20157;-77
2022/06/13 08:41:01;;;;;;;13.80;6.80;;;;;;;;;;5097045;28;20051;-77
2022/06/13 08:43:31;;;;;;;13.50;6.03;;;;;;;;;;5093978;28;20032;-77
2022/06/13 08:46:16;;;;;;;10.73;6.00;;;;;;;;;;5091147;28;20417;-77
2022/06/13 08:48:46;;;;;;;13.00;6.05;;;;;;;;;;5088349;28;20028;-77
2022/06/13 08:51:16;;;;;;;11.20;6.90;;;;;;;;;;5087242;28;20077;-77
2022/06/13 08:54:02;;;;;;;13.13;6.67;;;;;;;;;;5086348;28;20032;-76
2022/06/13 08:56:30;;;;;;;13.37;6.40;;;;;;;;;;5071050;28;20108;-76
2022/06/13 08:58:58;;;;;;;13.90;6.03;;;;;;;;;;5075877;28;20546;-77
2022/06/13 09:01:28;;;;;;;11.33;5.80;;;;;;;;;;5078407;28;20504;-77
2022/06/13 09:04:14;;;;;;;11.10;5.83;;;;;;;;;;5078891;28;20089;-77
2022/06/13 09:06:44;;;;;;;13.30;6.20;;;;;;;;;;5089396;28;20028;-76
2022/06/13 09:09:27;;;;;;;8.87;5.90;;;;;;;;;;5093430;28;20047;-77
2022/06/13 09:12:01;;;;;;;13.43;6.47;;;;;;;;;;5096414;28;20096;-77
2022/06/13 09:14:31;;;;;;;14.03;6.10;;;;;;;;;;5094230;28;20016;-77
2022/06/13 09:17:04;;;;;;;12.67;5.77;;;;;;;;;;5095032;28;20030;-77
2022/06/13 09:19:37;;;;;;;12.50;7.53;;;;;;;;;;5098506;28;20020;-77
2022/06/13 09:22:13;;;;;;;11.77;6.47;;;;;;;;;;5097387;28;20424;-77
2022/06/13 09:24:58;;;;;;;11.67;7.17;;;;;;;;;;5097513;28;20028;-77
2022/06/13 09:27:44;;;;;;;10.75;6.10;;;;;;;;;;5098380;28;20046;-77
2022/06/13 09:30:16;;;;;;;15.17;6.87;;;;;;;;;;5094488;28;20383;-76
2022/06/13 09:32:49;;;;;;;23.50;7.13;;;;;;;;;;5090676;28;20027;-77
2022/06/13 09:35:21;;;;;;;9.57;6.63;;;;;;;;;;5091457;28;20024;-77
2022/06/13 09:37:53;;;;;;;12.43;6.63;;;;;;;;;;5092101;28;20024;-77
2022/06/13 09:40:24;;;;;;;19.73;6.77;;;;;;;;;;5093237;28;20043;-78
2022/06/13 09:43:06;;;;;;;12.30;7.90;;;;;;;;;;5095568;28;20040;-77
2022/06/13 09:45:39;;;;;;;13.00;7.03;;;;;;;;;;5096144;28;20028;-76
2022/06/13 09:48:09;;;;;;;11.77;6.97;;;;;;;;;;5097599;28;20104;-77
2022/06/13 09:50:54;;;;;;;18.23;8.20;;;;;;;;;;5096683;28;20027;-78
2022/06/13 09:53:28;;;;;;;9.57;5.07;;;;;;;;;;5091054;28;20020;-77
2022/06/13 09:56:01;;;;;;;11.40;6.63;;;;;;;;;;5092166;28;20158;-77
2022/06/13 09:58:43;;;;;;;13.40;7.33;;;;;;;;;;5094948;28;20032;-77
2022/06/13 10:01:30;;;;;;;14.07;9.10;;;;;;;;;;5092074;28;20031;-77
2022/06/13 10:04:00;;;;;;;13.27;8.50;;;;;;;;;;5098617;28;20150;-77
2022/06/13 10:06:45;;;;;;;15.80;7.60;;;;;;;;;;5097084;28;20024;-77
2022/06/13 10:09:30;;;;;;;13.52;7.97;;;;;;;;;;5095997;28;20028;-76
2022/06/13 10:12:19;;;;;;;11.63;6.40;;;;;;;;;;5096904;28;20107;-77
2022/06/13 10:14:59;;;;;;;11.20;6.00;;;;;;;;;;5095142;28;20019;-77
2022/06/13 10:17:38;;;;;;;11.70;6.97;;;;;;;;;;5091901;28;20069;-77
2022/06/13 10:20:05;;;;;;;14.40;7.47;;;;;;;;;;5090982;28;20055;-77
2022/06/13 10:22:34;;;;;;;17.07;7.23;;;;;;;;;;5090828;28;20036;-77
2022/06/13 10:25:19;;;;;;;14.47;7.03;;;;;;;;;;5092597;28;20070;-76
2022/06/13 10:28:04;;;;;;;11.60;5.78;;;;;;;;;;5096105;28;20044;-77
2022/06/13 10:30:49;;;;;;;11.80;5.93;;;;;;;;;;5097304;28;20031;-77
2022/06/13 10:33:22;;;;;;;11.30;6.28;;;;;;;;;;5096746;28;20534;-76
2022/06/13 10:36:15;;;;;;;13.17;6.63;;;;;;;;;;5096630;28;20085;-77
2022/06/13 10:38:41;;;;;;;15.10;7.40;;;;;;;;;;5085499;28;20040;-77
2022/06/13 10:41:09;;;;;;;12.13;5.90;;;;;;;;;;5089085;28;20379;-76
2022/06/13 10:43:37;;;;;;;12.07;6.47;;;;;;;;;;5068952;28;20040;-76
2022/06/13 10:46:05;;;;;;;12.00;6.07;;;;;;;;;;5069753;28;20475;-77
2022/06/13 10:48:54;;;;;;;9.10;5.87;;;;;;;;;;5075126;28;20035;-77
2022/06/13 10:51:22;;;;;;;15.97;6.03;;;;;;;;;;5075482;28;20096;-77
2022/06/13 10:53:56;;;;;;;18.00;6.33;;;;;;;;;;5078726;28;20094;-77
2022/06/13 10:56:25;;;;;;;16.47;6.97;;;;;;;;;;5076791;28;20020;-77
2022/06/13 10:58:59;;;;;;;12.93;7.03;;;;;;;;;;5074457;28;20048;-77
2022/06/13 11:01:28;;;;;;;11.23;6.87;;;;;;;;;;5069067;28;20082;-77
2022/06/13 11:04:00;;;;;;;9.97;6.73;;;;;;;;;;5068719;28;20032;-77
2022/06/13 11:06:33;;;;;;;10.37;6.33;;;;;;;;;;5072373;28;20016;-77
2022/06/13 11:09:04;;;;;;;10.47;6.47;;;;;;;;;;5091549;28;20062;-77
2022/06/13 11:11:40;;;;;;;7.80;6.07;;;;;;;;;;5094663;28;20383;-77
2022/06/13 11:14:17;;;;;;;12.57;6.53;;;;;;;;;;5093936;28;20020;-77
2022/06/13 11:22:37;;;;;;;9.23;6.23;;;;;;;;;;5056857;28;20479;-77
2022/06/13 11:22:42;;;;;;;10.23;5.30;;;;;;;;;;5088905;28;20386;-77
2022/06/13 11:25:21;;;;;;;15.93;6.60;;;;;;;;;;5088453;28;20028;-76
2022/06/13 11:27:50;;;;;;;9.60;5.43;;;;;;;;;;5088680;28;20028;-76
2022/06/13 11:30:28;;;;;;;12.27;6.80;;;;;;;;;;5089985;28;20039;-77
2022/06/13 11:33:07;;;;;;;10.03;6.40;;;;;;;;;;5094550;28;20487;-77
2022/06/13 11:35:56;;;;;;;16.67;6.87;;;;;;;;;;5094719;28;20371;-77
2022/06/13 11:38:26;;;;;;;12.63;7.57;;;;;;;;;;5095249;28;20020;-77
2022/06/13 11:40:56;;;;;;;14.33;7.00;;;;;;;;;;5095019;28;20078;-77
2022/06/13 11:43:30;;;;;;;11.87;7.87;;;;;;;;;;5091868;28;20040;-77
2022/06/13 11:45:58;;;;;;;11.25;7.15;;;;;;;;;;5087201;28;20043;-76
2022/06/13 11:48:26;;;;;;;11.97;7.20;;;;;;;;;;5087488;28;20036;-77
2022/06/13 11:50:57;;;;;;;8.77;6.63;;;;;;;;;;5088086;28;20012;-77
2022/06/13 11:53:36;;;;;;;8.93;6.50;;;;;;;;;;5089302;28;20024;-76
2022/06/13 11:56:03;;;;;;;10.60;6.77;;;;;;;;;;5093926;28;20020;-77
2022/06/13 11:58:32;;;;;;;10.57;6.10;;;;;;;;;;5093729;28;20028;-76
2022/06/13 12:01:03;;;;;;;13.97;6.70;;;;;;;;;;5093085;28;20419;-77
2022/06/13 12:03:30;;;;;;;12.77;6.93;;;;;;;;;;5092963;28;20486;-77
2022/06/13 12:05:57;;;;;;;13.30;6.87;;;;;;;;;;5091581;28;20089;-76
2022/06/13 12:08:29;;;;;;;11.07;6.50;;;;;;;;;;5087476;28;20387;-77
2022/06/13 12:11:06;;;;;;;13.67;7.53;;;;;;;;;;5087194;28;20024;-76
2022/06/13 12:13:34;;;;;;;15.83;6.63;;;;;;;;;;5086735;28;20060;-77
2022/06/13 12:16:08;;;;;;;13.63;7.83;;;;;;;;;;5089037;28;20020;-76
2022/06/13 12:18:34;;;;;;;15.57;6.80;;;;;;;;;;5093132;28;20086;-77
2022/06/13 12:21:21;;;;;;;21.00;7.90;;;;;;;;;;5094262;28;20063;-77
2022/06/13 12:24:00;;;;;;;12.30;6.60;;;;;;;;;;5092412;28;20055;-77
2022/06/13 12:26:31;;;;;;;10.53;6.97;;;;;;;;;;5092661;28;20091;-77
2022/06/13 12:29:03;;;;;;;15.13;6.73;;;;;;;;;;5089372;28;20459;-77
2022/06/13 12:31:34;;;;;;;14.50;8.40;;;;;;;;;;5087066;28;20043;-77
2022/06/13 12:34:10;;;;;;;14.87;8.10;;;;;;;;;;5086857;28;20048;-77
2022/06/13 12:36:40;;;;;;;12.47;7.53;;;;;;;;;;5087929;28;20028;-77
2022/06/13 12:39:16;;;;;;;14.30;7.60;;;;;;;;;;5091646;28;20028;-77
2022/06/13 12:41:52;;;;;;;12.73;7.47;;;;;;;;;;5092875;28;20358;-77
2022/06/13 12:44:19;;;;;;;11.60;7.43;;;;;;;;;;5092370;28;20118;-77
2022/06/13 12:46:46;;;;;;;9.27;6.63;;;;;;;;;;5092268;28;20032;-77
2022/06/13 12:49:20;;;;;;;12.57;7.13;;;;;;;;;;5092511;28;20021;-77
2022/06/13 12:51:50;;;;;;;13.95;7.88;;;;;;;;;;5087430;28;20024;-77
2022/06/13 12:54:17;;;;;;;13.33;7.90;;;;;;;;;;5086989;28;20024;-77
2022/06/13 12:57:13;;;;;;;12.37;7.87;;;;;;;;;;5087363;28;20028;-77
2022/06/13 12:59:42;;;;;;;16.63;7.57;;;;;;;;;;5074495;28;20040;-77
2022/06/13 13:02:31;;;;;;;8.63;6.53;;;;;;;;;;5092125;28;20016;-76
2022/06/13 13:04:58;;;;;;;19.27;8.17;;;;;;;;;;5093146;28;20078;-77
2022/06/13 13:07:25;;;;;;;12.90;7.70;;;;;;;;;;5092944;28;20031;-77
2022/06/13 13:09:55;;;;;;;16.17;8.60;;;;;;;;;;5094611;28;20024;-77
2022/06/13 13:12:22;;;;;;;14.90;9.53;;;;;;;;;;5094636;28;20035;-77
2022/06/13 13:14:51;;;;;;;16.77;9.93;;;;;;;;;;5090352;28;20107;-77
2022/06/13 13:17:33;;;;;;;20.80;9.73;;;;;;;;;;5089955;28;20032;-77
2022/06/13 13:20:03;;;;;;;21.37;9.47;;;;;;;;;;5089067;28;20417;-77
2022/06/13 13:22:33;;;;;;;17.43;9.40;;;;;;;;;;5089430;28;20024;-77
2022/06/13 13:25:07;;;;;;;26.97;11.97;;;;;;;;;;5093002;28;20020;-77
2022/06/13 13:27:50;;;;;;;22.50;12.33;;;;;;;;;;5094216;28;20081;-77
2022/06/13 13:30:20;;;;;;;25.13;12.43;;;;;;;;;;5093572;28;20032;-77
2022/06/13 13:33:01;;;;;;;29.33;11.77;;;;;;;;;;5093016;28;20024;-76
2022/06/13 13:35:35;;;;;;;22.13;12.80;;;;;;;;;;5090458;28;20035;-77
2022/06/13 13:38:12;;;;;;;40.20;15.73;;;;;;;;;;5090008;28;20907;-77
2022/06/13 13:40:43;;;;;;;27.63;13.70;;;;;;;;;;5090358;28;20024;-77
2022/06/13 13:43:20;;;;;;;23.73;13.07;;;;;;;;;;5088916;28;20025;-77
2022/06/13 13:45:58;;;;;;;23.37;12.37;;;;;;;;;;5095553;28;20036;-77
2022/06/13 13:48:32;;;;;;;26.33;14.23;;;;;;;;;;5099655;28;20048;-78
2022/06/13 13:51:02;;;;;;;29.93;16.30;;;;;;;;;;5101393;28;20467;-76
2022/06/13 13:53:45;;;;;;;24.00;15.73;;;;;;;;;;5102465;28;20035;-77
2022/06/13 13:56:31;;;;;;;25.50;13.87;;;;;;;;;;5103459;28;20020;-77
2022/06/13 13:58:59;;;;;;;35.30;13.90;;;;;;;;;;5080218;28;20036;-77
2022/06/13 14:01:25;;;;;;;21.90;10.37;;;;;;;;;;5097841;28;20028;-77
2022/06/13 14:04:04;;;;;;;13.30;8.30;;;;;;;;;;5097462;28;20036;-76
2022/06/13 14:06:34;;;;;;;20.40;8.10;;;;;;;;;;5096101;28;20119;-77
2022/06/13 14:09:01;;;;;;;16.77;8.37;;;;;;;;;;5101236;28;20051;-76
2022/06/13 14:11:28;;;;;;;17.40;9.03;;;;;;;;;;5099704;28;20047;-77
2022/06/13 14:14:05;;;;;;;16.70;9.07;;;;;;;;;;5100898;28;20017;-77
2022/06/13 14:16:36;;;;;;;17.67;8.10;;;;;;;;;;5101567;28;20043;-78
2022/06/13 14:19:12;;;;;;;15.70;8.70;;;;;;;;;;5099997;28;20028;-77
2022/06/13 14:21:56;;;;;;;19.07;8.57;;;;;;;;;;5094271;28;20427;-77
2022/06/13 14:24:24;;;;;;;14.37;8.10;;;;;;;;;;5094844;28;20525;-77
2022/06/13 14:27:00;;;;;;;13.20;7.80;;;;;;;;;;5095183;28;20028;-77
2022/06/13 14:29:28;;;;;;;15.77;8.07;;;;;;;;;;5095534;28;20035;-77
2022/06/13 14:31:59;;;;;;;15.37;8.33;;;;;;;;;;5099856;28;20089;-76
2022/06/13 14:37:31;;;;;;;13.97;7.23;;;;;;;;;;5098786;28;20035;-77
2022/06/13 14:40:08;;;;;;;14.03;7.33;;;;;;;;;;5097809;28;20028;-77
2022/06/13 14:42:53;;;;;;;11.13;6.33;;;;;;;;;;5094247;28;20115;-77
2022/06/13 14:45:38;;;;;;;15.73;7.10;;;;;;;;;;5091337;28;21348;-77
2022/06/13 14:48:09;;;;;;;10.20;5.55;;;;;;;;;;5090004;28;20035;-77
2022/06/13 14:50:40;;;;;;;14.90;6.70;;;;;;;;;;5074379;28;20036;-77
2022/06/13 14:53:25;;;;;;;13.20;6.73;;;;;;;;;;5096655;28;20028;-77
2022/06/13 14:56:10;;;;;;;15.63;6.07;;;;;;;;;;5096896;28;20050;-77
2022/06/13 14:58:36;;;;;;;;;;;;;;;;;;5096720;28;20371;-77
2022/06/13 15:01:21;;;;;;;21.93;5.97;;;;;;;;;;5096483;28;19904;-78
2022/06/13 15:04:00;;;;;;;12.45;6.30;;;;;;;;;;5093879;28;20028;-77
2022/06/13 15:06:28;;;;;;;10.37;5.60;;;;;;;;;;5089426;28;20020;-77
2022/06/13 15:09:13;;;;;;;14.53;6.23;;;;;;;;;;5090111;28;20213;-77
2022/06/13 15:11:50;;;;;;;12.77;6.63;;;;;;;;;;5089985;28;20032;-77
2022/06/13 15:14:22;;;;;;;13.33;7.53;;;;;;;;;;5091276;28;20016;-77
2022/06/13 15:16:51;;;;;;;10.00;5.23;;;;;;;;;;5098745;28;20026;-77